createdAt,value
2019-04-01T10:34:39.809Z,76.95
2019-04-01T10:37:06.895Z,75.30
2019-04-01T10:39:33.959Z,75.46
2019-04-01T10:42:01.193Z,73.99
2019-04-01T10:44:30.865Z,73.80
2019-04-01T10:46:58.022Z,74.40
2019-04-01T10:49:25.151Z,74.55
2019-04-01T10:52:35.375Z,74.55
2019-04-01T10:55:02.804Z,74.82
2019-04-01T10:57:30.066Z,74.26
2019-04-01T10:59:57.201Z,74.35
2019-04-01T11:03:06.024Z,73.79
2019-04-01T11:05:32.208Z,72.74
2019-04-01T11:07:59.333Z,72.25
2019-04-01T11:10:26.503Z,71.29
2019-04-01T11:12:53.982Z,70.27
2019-04-01T11:15:21.540Z,70.49
2019-04-01T11:17:52.002Z,70.78
2019-04-01T11:20:17.811Z,70.54
2019-04-01T11:22:44.871Z,69.93
2019-04-01T11:25:12.296Z,69.29
2019-04-01T11:27:39.458Z,69.68
2019-04-01T11:30:07.787Z,69.34
2019-04-01T11:32:35.451Z,69.45
2019-04-01T11:35:04.564Z,68.76
2019-04-01T11:37:31.611Z,67.83
2019-04-01T11:39:58.800Z,67.94
2019-04-01T11:42:25.897Z,66.78
2019-04-01T11:44:53.007Z,65.95
2019-04-01T11:47:22.356Z,65.82
2019-04-01T11:49:52.474Z,65.75
2019-04-01T11:52:19.694Z,65.65
2019-04-01T11:54:46.819Z,65.27
2019-04-01T11:57:13.933Z,63.49
2019-04-01T11:59:41.009Z,63.97
2019-04-01T12:02:09.189Z,64.05
2019-04-01T12:04:36.347Z,63.55
2019-04-01T12:07:03.401Z,62.72
2019-04-01T12:09:30.435Z,62.41
2019-04-01T12:11:57.528Z,62.20
2019-04-01T12:14:24.608Z,61.00
2019-04-01T12:16:51.742Z,62.64
2019-04-01T12:19:20.562Z,62.05
2019-04-01T12:21:47.620Z,61.27
2019-04-01T12:24:14.671Z,60.47
2019-04-01T12:26:41.777Z,60.04
2019-04-01T12:29:11.849Z,59.60
2019-04-01T12:31:37.796Z,59.11
2019-04-01T12:34:05.123Z,58.77
2019-04-01T12:36:32.253Z,59.96
2019-04-01T12:38:59.345Z,58.80
2019-04-01T12:41:26.538Z,57.19
2019-04-01T12:43:53.579Z,58.09
2019-04-01T12:46:20.659Z,57.04
2019-04-01T12:48:47.754Z,56.10
2019-04-01T12:51:14.815Z,54.84
2019-04-01T12:54:20.521Z,52.44
2019-04-01T12:56:47.583Z,52.21
2019-04-01T12:59:14.673Z,50.22
2019-04-01T13:01:42.021Z,49.42
2019-04-01T13:04:09.221Z,48.68
2019-04-01T13:06:36.274Z,47.46
2019-04-01T13:09:05.578Z,45.88
2019-04-01T13:11:32.612Z,44.20
2019-04-01T13:13:59.705Z,43.82
2019-04-01T13:16:26.782Z,43.23
2019-04-01T13:18:53.825Z,42.67
2019-04-01T13:21:20.936Z,41.47
2019-04-01T13:23:48.189Z,41.00
2019-04-01T13:26:15.284Z,40.43
2019-04-01T13:28:42.614Z,40.06
2019-04-01T13:31:09.817Z,41.97
2019-04-01T13:33:39.708Z,41.32
2019-04-01T13:36:07.979Z,40.46
2019-04-01T13:38:35.229Z,40.35
2019-04-01T13:41:02.715Z,40.44
2019-04-01T13:43:29.805Z,39.80
2019-04-01T13:45:56.973Z,38.32
2019-04-01T13:48:24.050Z,37.83
2019-04-01T13:50:51.103Z,39.70
2019-04-01T13:53:18.296Z,39.43
2019-04-01T13:55:45.391Z,39.85
2019-04-01T13:58:57.514Z,39.56
2019-04-01T14:01:25.557Z,40.37
2019-04-01T14:03:53.567Z,39.91
2019-04-01T14:06:20.686Z,39.92
2019-04-01T14:08:47.793Z,38.74
2019-04-01T14:11:14.887Z,39.38
2019-04-01T14:13:42.019Z,40.25
2019-04-01T14:16:09.260Z,39.58
2019-04-01T14:18:36.628Z,39.11
2019-04-01T14:21:15.257Z,39.05
2019-04-01T14:23:32.710Z,40.46
2019-04-01T14:25:59.859Z,40.30
2019-04-01T14:28:28.836Z,40.35
2019-04-01T14:30:56.037Z,39.08
2019-04-01T14:33:23.126Z,39.28
2019-04-01T14:35:50.228Z,39.85
2019-04-01T14:38:17.484Z,40.14
2019-04-01T14:40:44.568Z,40.58
2019-04-01T14:43:11.907Z,40.32
2019-04-01T14:45:39.012Z,40.27
2019-04-01T14:48:08.355Z,40.33
2019-04-01T14:50:35.086Z,39.85
2019-04-01T14:53:02.215Z,40.72
2019-04-01T14:55:29.383Z,41.06
2019-04-01T14:58:00.321Z,40.98
2019-04-01T15:00:27.163Z,42.02
2019-04-01T15:02:54.226Z,41.58
2019-04-01T15:05:21.395Z,41.02
2019-04-01T15:07:48.470Z,40.47
2019-04-01T15:10:15.712Z,40.71
2019-04-01T15:12:42.755Z,41.17
2019-04-01T15:15:09.960Z,41.67
2019-04-01T15:17:37.190Z,41.32
2019-04-01T15:20:05.180Z,41.70
2019-04-01T15:22:32.246Z,41.82
2019-04-01T15:24:59.407Z,41.44
2019-04-01T15:27:26.558Z,41.36
2019-04-01T15:29:53.651Z,41.27
2019-04-01T15:32:59.405Z,41.73
2019-04-01T15:35:26.555Z,42.25
2019-04-01T15:37:53.628Z,41.91
2019-04-01T15:40:21.037Z,43.33
2019-04-01T15:42:48.111Z,43.11
2019-04-01T15:45:15.194Z,42.17
2019-04-01T15:47:43.306Z,42.34
2019-04-01T15:50:10.458Z,42.00
2019-04-01T15:52:37.531Z,42.87
2019-04-01T15:55:06.922Z,43.52
2019-04-01T15:57:34.172Z,43.65
2019-04-01T16:00:01.236Z,43.59
2019-04-01T16:02:28.427Z,43.02
2019-04-01T16:04:55.509Z,43.11
2019-04-01T16:07:22.683Z,43.57
2019-04-01T16:09:49.727Z,44.53
2019-04-01T16:12:16.820Z,44.30
2019-04-01T16:14:43.893Z,44.58
2019-04-01T16:17:10.951Z,44.53
2019-04-01T16:19:38.027Z,45.55
2019-04-01T16:22:05.153Z,46.19
2019-04-01T16:24:32.221Z,45.99
2019-04-01T16:26:59.310Z,45.43
2019-04-01T16:29:26.378Z,45.34
2019-04-01T16:31:55.360Z,45.88
2019-04-01T16:34:22.637Z,46.11
2019-04-01T16:36:49.788Z,46.18
2019-04-01T16:39:16.906Z,45.95
2019-04-01T16:42:02.227Z,46.32
2019-04-01T16:44:30.048Z,46.32
2019-04-01T16:46:57.111Z,46.83
2019-04-01T16:49:24.215Z,47.04
2019-04-01T16:51:51.258Z,47.38
2019-04-01T16:54:18.325Z,47.34
2019-04-01T16:56:46.483Z,46.89
2019-04-01T16:59:13.570Z,47.13
2019-04-01T17:01:41.667Z,47.60
2019-04-01T17:04:09.106Z,48.29
2019-04-01T17:06:36.680Z,48.97
2019-04-01T17:09:06.032Z,48.28
2019-04-01T17:11:37.942Z,48.86
2019-04-01T17:14:05.099Z,49.31
2019-04-01T17:16:32.185Z,49.52
2019-04-01T17:18:59.290Z,49.79
2019-04-01T17:21:26.355Z,50.18
2019-04-01T17:23:53.430Z,50.49
2019-04-01T17:26:20.485Z,50.94
2019-04-01T17:29:31.925Z,51.65
2019-04-01T17:31:59.318Z,51.88
2019-04-01T17:34:26.412Z,52.74
2019-04-01T17:36:53.606Z,53.14
2019-04-01T17:39:20.701Z,54.01
2019-04-01T17:41:48.806Z,54.49
2019-04-01T17:44:15.903Z,55.14
2019-04-01T17:46:42.966Z,55.79
2019-04-01T17:49:10.130Z,56.30
2019-04-01T17:51:38.604Z,57.07
2019-04-01T17:54:05.677Z,57.34
2019-04-01T17:56:34.651Z,57.65
2019-04-01T17:59:01.852Z,58.30
2019-04-01T18:01:31.609Z,58.37
2019-04-01T18:03:58.807Z,58.55
2019-04-01T18:06:25.969Z,58.86
2019-04-01T18:08:53.069Z,59.20
2019-04-01T18:11:20.373Z,59.61
2019-04-01T18:13:47.472Z,59.36
2019-04-01T18:16:14.691Z,59.66
2019-04-01T18:18:41.818Z,60.69
2019-04-01T18:21:08.917Z,61.69
2019-04-01T18:23:36.014Z,61.74
2019-04-01T18:26:03.049Z,62.35
2019-04-01T18:28:30.111Z,62.71
2019-04-01T18:30:57.196Z,63.32
2019-04-01T18:33:24.322Z,64.12
2019-04-01T18:35:51.502Z,65.19
2019-04-01T18:38:18.568Z,65.75
2019-04-01T18:40:45.696Z,66.45
2019-04-01T18:43:16.342Z,67.10
2019-04-01T18:45:44.517Z,67.81
2019-04-01T18:48:14.388Z,68.33
2019-04-01T18:50:40.911Z,68.80
2019-04-01T18:53:08.060Z,69.04
2019-04-01T18:55:37.893Z,69.53
2019-04-01T18:58:05.087Z,69.71
2019-04-01T19:00:32.503Z,69.96
2019-04-01T19:02:59.764Z,70.35
2019-04-01T19:05:26.962Z,70.89
2019-04-01T19:07:54.073Z,71.44
2019-04-01T19:10:21.291Z,72.36
2019-04-01T19:12:48.339Z,73.08
2019-04-01T19:15:18.695Z,74.07
2019-04-01T19:17:46.077Z,74.30
2019-04-01T19:20:13.600Z,74.31
2019-04-01T19:22:40.696Z,74.43
2019-04-01T19:25:14.553Z,74.85
2019-04-01T19:27:41.693Z,75.28
2019-04-01T19:30:09.871Z,75.53
2019-04-01T19:32:45.479Z,75.74
2019-04-01T19:35:14.547Z,76.12
2019-04-01T19:37:41.650Z,76.79
2019-04-01T19:40:09.355Z,77.02
2019-04-01T19:42:39.334Z,77.53
2019-04-01T19:45:05.954Z,78.08
2019-04-01T19:47:33.035Z,78.84
2019-04-01T19:50:00.158Z,79.86
2019-04-01T19:52:27.255Z,80.87
2019-04-01T19:54:54.379Z,81.29
2019-04-01T19:57:23.420Z,82.02
2019-04-01T19:59:50.642Z,82.41
2019-04-01T20:02:17.838Z,83.28
2019-04-01T20:04:44.948Z,84.43
2019-04-01T20:07:13.627Z,87.42
2019-04-01T20:09:41.182Z,88.10
2019-04-01T20:12:08.556Z,88.98
2019-04-01T20:14:35.824Z,89.30
2019-04-01T20:17:03.869Z,89.89
2019-04-01T20:19:31.029Z,89.93
2019-04-01T20:21:58.228Z,90.12
2019-04-01T20:24:25.424Z,90.17
2019-04-01T20:26:52.843Z,90.89
2019-04-01T20:29:19.904Z,92.89
2019-04-01T20:31:47.168Z,93.67
2019-04-01T20:34:19.916Z,95.11
2019-04-01T20:36:44.453Z,95.98
2019-04-01T20:39:11.776Z,96.29
2019-04-01T20:41:38.951Z,97.12
2019-04-01T20:44:06.056Z,97.04
2019-04-01T20:46:33.370Z,97.30
2019-04-01T20:49:01.263Z,99.01
2019-04-01T20:51:29.522Z,99.31
2019-04-01T20:53:57.021Z,99.86
2019-04-01T20:56:24.158Z,99.71
2019-04-01T20:58:51.345Z,100.00
2019-04-01T21:01:18.438Z,100.00
2019-04-01T21:03:46.273Z,100.00
2019-04-01T21:06:13.365Z,100.00
2019-04-01T21:08:40.543Z,100.00
2019-04-01T21:11:07.687Z,100.00
2019-04-01T21:13:35.174Z,100.00
2019-04-01T21:16:03.385Z,100.00
2019-04-01T21:18:30.523Z,100.00
2019-04-01T21:20:57.619Z,100.00
2019-04-01T21:23:24.828Z,100.00
2019-04-01T21:25:51.941Z,100.00
2019-04-01T21:28:19.091Z,100.00
2019-04-01T21:30:46.871Z,100.00
2019-04-01T21:33:14.389Z,100.00
2019-04-01T21:35:41.728Z,100.00
2019-04-01T21:38:09.360Z,100.00
2019-04-01T21:40:36.531Z,100.00
2019-04-01T21:43:05.393Z,100.00
2019-04-01T21:45:32.923Z,100.00
2019-04-01T21:48:00.171Z,100.00
2019-04-01T21:50:29.537Z,100.00
2019-04-01T21:52:56.518Z,100.00
2019-04-01T21:55:25.225Z,100.00
2019-04-01T21:57:52.527Z,100.00
2019-04-01T22:00:38.300Z,100.00
2019-04-01T22:03:05.847Z,100.00
2019-04-01T22:05:33.015Z,100.00
2019-04-01T22:08:00.550Z,100.00
2019-04-01T22:10:27.741Z,100.00
2019-04-01T22:12:55.381Z,100.00
2019-04-01T22:15:24.929Z,100.00
2019-04-01T22:17:52.019Z,100.00
2019-04-01T22:20:19.097Z,100.00
2019-04-01T22:22:46.199Z,100.00
2019-04-01T22:25:13.298Z,100.00
2019-04-01T22:27:40.373Z,100.00
2019-04-01T22:30:08.093Z,100.00
2019-04-01T22:32:35.614Z,100.00
2019-04-01T22:35:05.179Z,100.00
2019-04-01T22:37:32.053Z,100.00
2019-04-01T22:39:59.123Z,100.00
2019-04-01T22:42:27.160Z,100.00
2019-04-01T22:44:54.494Z,100.00
2019-04-01T22:47:24.231Z,100.00
2019-04-01T22:49:50.574Z,100.00
2019-04-01T22:52:17.642Z,100.00
2019-04-01T22:54:44.729Z,100.00
2019-04-01T22:57:11.787Z,100.00
2019-04-01T22:59:38.877Z,100.00
2019-04-01T23:02:06.051Z,100.00
2019-04-01T23:04:33.168Z,100.00
2019-04-01T23:07:00.284Z,100.00
2019-04-01T23:09:29.458Z,100.00
2019-04-01T23:11:56.515Z,100.00
2019-04-01T23:14:23.611Z,100.00
2019-04-01T23:16:52.746Z,100.00
2019-04-01T23:19:19.821Z,100.00
2019-04-01T23:21:46.882Z,100.00
2019-04-01T23:24:13.943Z,100.00
2019-04-01T23:26:41.351Z,100.00
2019-04-01T23:29:08.538Z,100.00
2019-04-01T23:31:38.286Z,100.00
2019-04-01T23:34:05.650Z,100.00
2019-04-01T23:36:32.849Z,100.00
2019-04-01T23:38:59.987Z,100.00
2019-04-01T23:41:27.042Z,100.00
2019-04-01T23:43:55.050Z,100.00
2019-04-01T23:46:22.260Z,100.00
2019-04-01T23:48:49.349Z,100.00
2019-04-01T23:51:16.536Z,100.00
2019-04-01T23:53:43.594Z,100.00
2019-04-01T23:56:10.645Z,100.00
2019-04-01T23:58:37.725Z,100.00
